»·PEaware :: N213BK KSBA-KSBP

N213BK :: KSBA-KSBP

FLIGHT INFORMATION

Flight Status: Arrived
Operator: Privately registered:
United States
More flights under this callsign
Pilot: Bradford K. (23688)
Aircraft: BEECH AIRCRAFT PREMIER
(PRM1)
More flights by this aircraft type
Origin: KSBA Santa Barbara Mun
United States
Destination: KSBP San Luis Co Regl
United States
More flights between these airports :: More routes between these airports
Route: + FLOUT5 GVO V27 MQO
File this flight plan on PilotEdge
Remarks:
Altitude:
(Current/Filed)
12,000ft
Speed:
(Current/Filed)
300kts
Departed: 10-Nov-19 09:49 AM
Arrived: 10-Nov-19 10:27 AM
Distance/Time
Traveled:
63nm/0:38
Distance/Time
To Go:
Arrived

Flight Plot

Page will automatically refresh every two minutes.

Flight plan parsing failed; only flown route is shown


Map Options




Map Legend


Flown Route
Filed Route
Departure Airport
Arrival Airport
Navaid (VOR, NDB)
Fix

Horizontal Profiles

Position Reports

Time Latitude Longitude Heading Altitude Ground
Speed
10-Nov-19 09:29 34.432557 -119.835131 71 17ft 0kts
10-Nov-19 09:30 34.432557 -119.835131 71 17ft 0kts
10-Nov-19 09:31 34.432557 -119.835131 71 17ft 0kts
10-Nov-19 09:33 34.432557 -119.835131 71 17ft 0kts
10-Nov-19 09:34 34.432557 -119.835131 71 17ft 0kts
10-Nov-19 09:35 34.432557 -119.835131 71 17ft 0kts
10-Nov-19 09:36 34.432557 -119.835131 71 17ft 0kts
10-Nov-19 09:37 34.432557 -119.835131 71 17ft 0kts
10-Nov-19 09:38 34.432557 -119.835131 71 17ft 0kts
10-Nov-19 09:39 34.432557 -119.835131 71 17ft 0kts
10-Nov-19 09:40 34.432557 -119.835131 71 17ft 0kts
10-Nov-19 09:41 34.432557 -119.835131 71 17ft 0kts
10-Nov-19 09:42 34.432557 -119.835131 71 17ft 0kts
10-Nov-19 09:43 34.432557 -119.835131 71 17ft 0kts
10-Nov-19 09:44 34.432557 -119.835131 71 17ft 0kts
10-Nov-19 09:45 34.432100 -119.835242 215 17ft 1kts
10-Nov-19 09:46 34.428989 -119.834844 117 13ft 11kts
10-Nov-19 09:47 34.428833 -119.834708 173 13ft 0kts
10-Nov-19 09:48 34.428833 -119.834708 173 13ft 0kts
10-Nov-19 09:49 34.427833 -119.838610 268 16ft 67kts
10-Nov-19 09:50 34.411892 -119.882867 202 1248ft 170kts
10-Nov-19 09:51 34.362878 -119.888782 180 3201ft 182kts
10-Nov-19 09:52 34.304884 -119.910234 229 3559ft 217kts
10-Nov-19 09:53 34.269482 -119.958189 283 4913ft 176kts
10-Nov-19 09:53 34.295512 -119.986998 334 6441ft 149kts
10-Nov-19 09:55 34.343578 -120.014019 336 8016ft 215kts
10-Nov-19 09:56 34.400425 -120.045422 336 7998ft 221kts
10-Nov-19 09:56 34.447295 -120.071330 336 9421ft 242kts
10-Nov-19 09:57 34.517405 -120.087059 350 11557ft 287kts
10-Nov-19 09:59 34.603837 -120.157656 324 12021ft 329kts
10-Nov-19 09:59 34.660272 -120.209577 324 12022ft 289kts
10-Nov-19 10:00 34.721652 -120.266114 325 12033ft 269kts
10-Nov-19 10:01 34.781227 -120.321097 324 12036ft 271kts
10-Nov-19 10:02 34.841253 -120.376620 325 12034ft 270kts
10-Nov-19 10:03 34.899357 -120.430461 325 12034ft 260kts
10-Nov-19 10:04 34.956303 -120.483318 325 12034ft 256kts
10-Nov-19 10:05 35.012577 -120.535641 325 12018ft 255kts
10-Nov-19 10:06 35.075001 -120.593753 324 10029ft 302kts
10-Nov-19 10:07 35.139589 -120.654085 323 8032ft 285kts
10-Nov-19 10:08 35.200503 -120.711072 323 6113ft 257kts
10-Nov-19 10:09 35.247642 -120.754941 319 6015ft 180kts
10-Nov-19 10:10 35.251362 -120.804186 202 5947ft 207kts
10-Nov-19 10:11 35.202827 -120.764241 137 5291ft 235kts
10-Nov-19 10:12 35.155559 -120.711367 138 5051ft 214kts
10-Nov-19 10:13 35.115686 -120.663226 118 5209ft 192kts
10-Nov-19 10:14 35.084925 -120.608700 126 5123ft 195kts
10-Nov-19 10:15 35.048765 -120.559050 133 5049ft 197kts
10-Nov-19 10:16 35.008188 -120.514829 140 5029ft 196kts
10-Nov-19 10:17 34.968459 -120.470432 98 4696ft 207kts
10-Nov-19 10:18 34.943508 -120.484654 320 4877ft 178kts
10-Nov-19 10:19 34.985606 -120.511565 322 5102ft 182kts
10-Nov-19 10:20 35.031376 -120.519922 29 4784ft 207kts
10-Nov-19 10:21 35.083588 -120.473839 34 3591ft 237kts
10-Nov-19 10:22 35.139541 -120.473520 319 3323ft 208kts
10-Nov-19 10:23 35.170586 -120.527788 306 3319ft 180kts
10-Nov-19 10:24 35.201171 -120.579489 306 1876ft 197kts
10-Nov-19 10:25 35.231544 -120.631030 304 339ft 162kts
10-Nov-19 10:26 35.241432 -120.646831 58 219ft 1kts
10-Nov-19 10:27 35.238515 -120.641401 123 219ft 17kts
10-Nov-19 10:28 35.237796 -120.636656 328 219ft 2kts
10-Nov-19 10:29 35.237797 -120.636657 328 219ft 0kts
10-Nov-19 10:30 35.237853 -120.636698 328 219ft 0kts
10-Nov-19 10:31 35.237922 -120.636749 328 219ft 0kts
10-Nov-19 10:32 35.237986 -120.636796 328 219ft 0kts
10-Nov-19 10:33 35.237986 -120.636796 328 219ft 0kts
10-Nov-19 10:34 35.237986 -120.636796 328 219ft 0kts
10-Nov-19 10:35 35.237986 -120.636796 328 219ft 0kts
10-Nov-19 10:36 35.237986 -120.636796 328 219ft 0kts
10-Nov-19 10:37 35.237986 -120.636796 328 219ft 0kts

Navigation Log

Ident Type
Flight plan parsing failed, navigation log unavailable